createdAt,value
2022-12-23T00:02:39.882Z,-2.90
2022-12-23T00:05:39.304Z,-2.70
2022-12-23T00:08:37.451Z,-2.70
2022-12-23T00:11:35.186Z,-2.60
2022-12-23T00:14:55.978Z,-2.70
2022-12-23T00:17:53.693Z,-2.60
2022-12-23T00:21:08.143Z,-2.60
2022-12-23T00:24:06.708Z,-2.60
2022-12-23T00:27:04.363Z,-2.70
2022-12-23T00:30:02.084Z,-2.60
2022-12-23T00:33:00.822Z,-2.60
2022-12-23T00:35:59.228Z,-2.70
2022-12-23T00:39:16.641Z,-2.60
2022-12-23T00:42:32.916Z,-2.50
2022-12-23T00:45:30.663Z,-2.60
2022-12-23T00:48:46.855Z,-2.70
2022-12-23T00:51:44.499Z,-2.80
2022-12-23T00:54:42.495Z,-2.90
2022-12-23T00:57:40.175Z,-2.90
2022-12-23T01:00:56.345Z,-3.10
2022-12-23T01:04:12.181Z,-3.30
2022-12-23T01:07:10.124Z,-3.20
2022-12-23T01:10:08.381Z,-3.10
2022-12-23T01:13:06.886Z,-3.00
2022-12-23T01:16:15.031Z,-3.00
2022-12-23T01:19:16.021Z,-3.00
2022-12-23T01:22:13.685Z,-3.10
2022-12-23T01:25:11.847Z,-3.20
2022-12-23T01:28:09.469Z,-3.20
2022-12-23T01:31:08.670Z,-3.20
2022-12-23T01:34:06.365Z,-3.20
2022-12-23T01:37:04.465Z,-3.30
2022-12-23T01:40:02.229Z,-3.30
2022-12-23T01:43:00.027Z,-3.40
2022-12-23T01:45:57.628Z,-3.50
2022-12-23T01:48:56.546Z,-3.70
2022-12-23T01:51:54.267Z,-3.70
2022-12-23T01:54:52.950Z,-3.80
2022-12-23T01:57:52.404Z,-4.10
2022-12-23T02:01:09.040Z,-4.10
2022-12-23T02:04:10.243Z,-4.20
2022-12-23T02:07:26.479Z,-4.40
2022-12-23T02:10:30.509Z,-4.50
2022-12-23T02:14:30.279Z,-4.50
2022-12-23T02:17:33.358Z,-4.50
2022-12-23T02:20:56.732Z,-4.60
2022-12-23T02:23:54.391Z,-4.70
2022-12-23T02:27:10.174Z,-4.80
2022-12-23T02:30:38.723Z,-4.90
2022-12-23T02:34:01.677Z,-4.90
2022-12-23T02:37:08.387Z,-4.90
2022-12-23T02:41:05.513Z,-5.00
2022-12-23T02:44:30.899Z,-5.10
2022-12-23T02:47:38.762Z,-5.00
2022-12-23T02:50:39.785Z,-5.00
2022-12-23T02:53:55.305Z,-5.10
2022-12-23T02:56:54.762Z,-5.10
2022-12-23T02:59:53.823Z,-5.20
2022-12-23T03:02:51.626Z,-5.40
2022-12-23T03:05:51.536Z,-5.30
2022-12-23T03:08:53.338Z,-5.60
2022-12-23T03:12:17.322Z,-5.40
2022-12-23T03:16:00.033Z,-5.30
2022-12-23T03:19:18.903Z,-5.40
2022-12-23T03:22:26.600Z,-5.30
2022-12-23T03:25:47.187Z,-5.30
2022-12-23T03:29:02.091Z,-5.20
2022-12-23T03:32:02.826Z,-5.10
2022-12-23T03:35:03.095Z,-5.20
2022-12-23T03:38:03.822Z,-5.10
2022-12-23T03:41:09.888Z,-4.90
2022-12-23T03:44:14.064Z,-5.00
2022-12-23T03:47:19.727Z,-4.90
2022-12-23T03:50:20.429Z,-4.90
2022-12-23T03:53:42.638Z,-4.90
2022-12-23T03:56:46.344Z,-4.80
2022-12-23T03:59:46.199Z,-4.70
2022-12-23T04:03:19.282Z,-4.50
2022-12-23T04:06:20.183Z,-4.50
2022-12-23T04:09:22.385Z,-4.50
2022-12-23T04:12:23.436Z,-4.50
2022-12-23T04:15:23.481Z,-4.50
2022-12-23T04:18:21.103Z,-4.50
2022-12-23T04:21:19.026Z,-4.50
2022-12-23T04:24:16.761Z,-4.70
2022-12-23T04:27:16.989Z,-4.50
2022-12-23T04:30:15.266Z,-4.20
2022-12-23T04:33:13.490Z,-4.00
2022-12-23T04:36:12.020Z,-4.00
2022-12-23T04:39:10.883Z,-3.90
2022-12-23T04:42:08.630Z,-3.90
2022-12-23T04:45:06.984Z,-3.80
2022-12-23T04:48:04.944Z,-3.90
2022-12-23T04:51:03.718Z,-3.90
2022-12-23T04:54:01.509Z,-3.60
2022-12-23T04:56:59.325Z,-3.60
2022-12-23T04:59:57.221Z,-3.50
2022-12-23T05:02:55.215Z,-3.30
2022-12-23T05:05:53.054Z,-3.10
2022-12-23T05:08:50.838Z,-2.80
2022-12-23T05:11:48.669Z,-2.80
2022-12-23T05:14:46.534Z,-2.80
2022-12-23T05:17:44.282Z,-2.70
2022-12-23T05:20:42.116Z,-2.70
2022-12-23T05:23:40.600Z,-2.80
2022-12-23T05:26:39.286Z,-2.80
2022-12-23T05:29:37.374Z,-2.80
2022-12-23T05:32:35.207Z,-2.80
2022-12-23T05:35:33.121Z,-2.80
2022-12-23T05:38:31.440Z,-2.80
2022-12-23T05:41:29.257Z,-2.80
2022-12-23T05:44:27.132Z,-2.60
2022-12-23T05:47:24.877Z,-2.30
2022-12-23T05:50:22.748Z,-2.00
2022-12-23T05:53:21.776Z,-1.90
2022-12-23T05:56:19.639Z,-1.80
2022-12-23T05:59:17.581Z,-2.00
2022-12-23T06:02:15.570Z,-2.00
2022-12-23T06:05:14.142Z,-2.00
2022-12-23T06:08:12.156Z,-2.00
2022-12-23T06:11:09.884Z,-2.00
2022-12-23T06:14:08.112Z,-1.90
2022-12-23T06:17:05.911Z,-2.00
2022-12-23T06:20:04.278Z,-2.10
2022-12-23T06:23:02.320Z,-2.30
2022-12-23T06:26:01.416Z,-2.40
2022-12-23T06:28:59.262Z,-2.00
2022-12-23T06:31:57.557Z,-1.70
2022-12-23T06:34:55.421Z,-1.50
2022-12-23T06:37:56.232Z,-1.70
2022-12-23T06:40:54.115Z,-1.60
2022-12-23T06:43:54.417Z,-1.60
2022-12-23T06:46:52.684Z,-2.20
2022-12-23T06:49:50.568Z,-2.40
2022-12-23T06:52:49.683Z,-2.90
2022-12-23T06:55:47.446Z,-2.50
2022-12-23T06:58:45.304Z,-2.60
2022-12-23T07:01:43.320Z,-2.70
2022-12-23T07:04:41.230Z,-2.70
2022-12-23T07:07:39.306Z,-2.40
2022-12-23T07:10:37.149Z,-2.30
2022-12-23T07:13:35.488Z,-2.20
2022-12-23T07:16:33.283Z,-1.90
2022-12-23T07:19:31.118Z,-1.70
2022-12-23T07:22:28.877Z,-1.90
2022-12-23T07:25:27.082Z,-1.80
2022-12-23T07:28:25.183Z,-1.70
2022-12-23T07:31:23.300Z,-1.70
2022-12-23T07:34:21.188Z,-1.70
2022-12-23T07:37:19.200Z,-1.70
2022-12-23T07:40:16.921Z,-1.70
2022-12-23T07:43:14.942Z,-1.80
2022-12-23T07:46:12.870Z,-1.70
2022-12-23T07:49:11.078Z,-1.60
2022-12-23T07:52:08.705Z,-1.40
2022-12-23T07:55:07.113Z,-1.20
2022-12-23T07:58:04.765Z,-1.10
2022-12-23T08:01:06.199Z,-0.90
2022-12-23T08:04:03.989Z,-0.90
2022-12-23T08:07:01.721Z,-0.80
2022-12-23T08:09:59.398Z,-1.00
2022-12-23T08:13:00.871Z,-0.90
2022-12-23T08:15:59.892Z,-0.50
2022-12-23T08:18:57.694Z,-0.50
2022-12-23T08:21:55.349Z,-0.50
2022-12-23T08:24:53.764Z,-0.70
2022-12-23T08:27:52.169Z,-1.30
2022-12-23T08:30:50.084Z,-1.20
2022-12-23T08:33:50.202Z,-3.00
2022-12-23T08:36:48.197Z,-3.10
2022-12-23T08:39:45.887Z,-3.50
2022-12-23T08:42:43.845Z,-3.50
2022-12-23T08:45:41.557Z,-3.10
2022-12-23T08:48:45.172Z,-3.00
2022-12-23T08:51:47.426Z,-3.00
2022-12-23T08:54:45.410Z,-2.90
2022-12-23T08:57:43.048Z,-2.70
2022-12-23T09:00:42.058Z,-2.30
2022-12-23T09:03:40.773Z,-2.40
2022-12-23T09:06:44.558Z,-2.20
2022-12-23T09:09:42.174Z,-2.10
2022-12-23T09:12:39.981Z,-2.00
2022-12-23T09:15:44.746Z,-2.00
2022-12-23T09:18:42.895Z,-1.90
2022-12-23T09:21:40.586Z,-1.90
2022-12-23T09:24:39.089Z,-2.00
2022-12-23T09:27:36.779Z,-2.10
2022-12-23T09:30:34.619Z,-2.00
2022-12-23T09:33:32.291Z,-2.10
2022-12-23T09:36:30.498Z,-2.00
2022-12-23T09:39:28.162Z,-2.10
2022-12-23T09:42:55.365Z,-2.00
2022-12-23T09:46:06.082Z,-2.00
2022-12-23T09:49:16.844Z,-1.90
2022-12-23T09:52:22.925Z,-2.00
2022-12-23T09:55:24.137Z,-2.00
2022-12-23T09:58:33.558Z,-2.10
2022-12-23T10:01:56.904Z,-2.20
2022-12-23T10:05:18.617Z,-2.20
2022-12-23T10:08:32.580Z,-2.00
2022-12-23T10:11:38.475Z,-2.10
2022-12-23T10:14:37.841Z,-2.20
2022-12-23T10:17:42.205Z,-2.10
2022-12-23T10:20:53.626Z,-2.20
2022-12-23T10:23:54.070Z,-2.10
2022-12-23T10:26:57.233Z,-1.90
2022-12-23T10:29:54.973Z,-1.90
2022-12-23T10:33:17.048Z,-2.00
2022-12-23T10:36:40.751Z,-2.10
2022-12-23T10:40:04.379Z,-2.20
2022-12-23T10:43:11.035Z,-2.30
2022-12-23T10:46:45.375Z,-2.20
2022-12-23T10:49:53.684Z,-2.20
2022-12-23T10:52:53.288Z,-2.30
2022-12-23T10:55:51.807Z,-2.20
2022-12-23T10:58:57.322Z,-2.30
2022-12-23T11:02:15.215Z,-2.30
2022-12-23T11:05:18.465Z,-2.20
2022-12-23T11:08:16.835Z,-2.30
2022-12-23T11:11:14.677Z,-2.40
2022-12-23T11:14:38.376Z,-2.30
2022-12-23T11:17:36.578Z,-2.40
2022-12-23T11:20:36.823Z,-2.50
2022-12-23T11:23:37.105Z,-2.50
2022-12-23T11:26:35.579Z,-2.60
2022-12-23T11:29:44.430Z,-2.70
2022-12-23T11:32:43.797Z,-2.80
2022-12-23T11:35:41.670Z,-2.80
2022-12-23T11:39:15.443Z,-2.80
2022-12-23T11:42:18.133Z,-2.80
2022-12-23T11:45:24.187Z,-2.80
2022-12-23T11:48:30.833Z,-2.80
2022-12-23T11:51:28.546Z,-3.20
2022-12-23T11:54:26.351Z,-3.10
2022-12-23T11:57:34.360Z,-3.00
2022-12-23T12:00:42.542Z,-3.00
2022-12-23T12:03:47.910Z,-3.00
2022-12-23T12:06:54.165Z,-3.10
2022-12-23T12:09:58.396Z,-3.10
2022-12-23T12:13:22.329Z,-3.00
2022-12-23T12:16:32.008Z,-3.00
2022-12-23T12:19:36.243Z,-3.00
2022-12-23T12:22:36.595Z,-3.10
2022-12-23T12:25:54.396Z,-3.10
2022-12-23T12:28:59.794Z,-3.40
2022-12-23T12:32:00.782Z,-3.30
2022-12-23T12:35:05.813Z,-3.20
2022-12-23T12:38:33.001Z,-3.20
2022-12-23T12:41:41.760Z,-3.20
2022-12-23T12:45:13.102Z,-3.10
2022-12-23T12:48:18.766Z,-3.00
2022-12-23T12:51:48.012Z,-3.10
2022-12-23T12:54:53.928Z,-3.10
2022-12-23T12:57:51.767Z,-3.10
2022-12-23T13:01:13.829Z,-3.10
2022-12-23T13:04:26.346Z,-3.10
2022-12-23T13:07:45.284Z,-3.20
2022-12-23T13:10:52.640Z,-2.90
2022-12-23T13:14:17.888Z,-3.10
2022-12-23T13:17:27.030Z,-3.00
2022-12-23T13:20:43.368Z,-2.90
2022-12-23T13:24:04.178Z,-2.80
2022-12-23T13:27:22.190Z,-2.80
2022-12-23T13:30:25.109Z,-3.10
2022-12-23T13:33:49.914Z,-3.10
2022-12-23T13:37:22.590Z,-3.10
2022-12-23T13:40:32.621Z,-3.10
2022-12-23T13:43:43.368Z,-3.00
2022-12-23T13:46:53.309Z,-3.00
2022-12-23T13:50:27.087Z,-3.00
2022-12-23T13:53:49.372Z,-2.90
2022-12-23T13:57:01.878Z,-2.80
2022-12-23T14:00:06.192Z,-3.00
2022-12-23T14:03:07.529Z,-3.10
2022-12-23T14:06:37.307Z,-3.10
2022-12-23T14:09:38.849Z,-3.00
2022-12-23T14:12:41.384Z,-2.90
2022-12-23T14:15:55.698Z,-3.20
2022-12-23T14:19:23.291Z,-3.20
2022-12-23T14:23:19.465Z,-3.00
2022-12-23T14:26:57.257Z,-3.20
2022-12-23T14:30:12.628Z,-3.20
2022-12-23T14:33:19.158Z,-3.10
2022-12-23T14:36:24.786Z,-3.20
2022-12-23T14:39:31.078Z,-3.30
2022-12-23T14:42:43.997Z,-3.30
2022-12-23T14:45:44.918Z,-3.30
2022-12-23T14:48:46.550Z,-3.40
2022-12-23T14:51:44.219Z,-3.40
2022-12-23T14:54:55.242Z,-3.80
2022-12-23T14:58:32.891Z,-4.10
2022-12-23T15:01:55.058Z,-4.60
2022-12-23T15:04:57.840Z,-5.30
2022-12-23T15:07:57.805Z,-5.50
2022-12-23T15:10:56.348Z,-5.80
2022-12-23T15:13:56.244Z,-5.40
2022-12-23T15:16:53.995Z,-5.30
2022-12-23T15:19:51.861Z,-5.10
2022-12-23T15:22:51.222Z,-5.00
2022-12-23T15:25:51.839Z,-5.00
2022-12-23T15:28:50.371Z,-5.00
2022-12-23T15:31:58.556Z,-4.80
2022-12-23T15:35:06.249Z,-4.90
2022-12-23T15:38:06.545Z,-4.80
2022-12-23T15:41:13.996Z,-4.80
2022-12-23T15:44:24.196Z,-4.80
2022-12-23T15:47:25.952Z,-4.70
2022-12-23T15:50:23.964Z,-4.50
2022-12-23T15:53:21.806Z,-4.40
2022-12-23T15:56:26.573Z,-4.90
2022-12-23T15:59:29.809Z,-4.70
2022-12-23T16:05:53.638Z,-4.40
2022-12-23T16:09:17.412Z,-4.20
2022-12-23T16:12:24.944Z,-4.20
2022-12-23T16:15:31.247Z,-4.10
2022-12-23T16:18:32.114Z,-4.10
2022-12-23T16:21:34.294Z,-4.10
2022-12-23T16:24:31.922Z,-4.00
2022-12-23T16:27:49.147Z,-4.00
2022-12-23T16:30:49.969Z,-4.00
2022-12-23T16:33:54.856Z,-3.90
2022-12-23T16:36:52.624Z,-4.00
2022-12-23T16:39:51.240Z,-3.90
2022-12-23T16:42:48.860Z,-4.10
2022-12-23T16:45:50.347Z,-4.10
2022-12-23T16:48:56.716Z,-4.10
2022-12-23T16:51:54.731Z,-4.20
2022-12-23T16:54:52.543Z,-4.30
2022-12-23T16:57:51.317Z,-4.40
2022-12-23T17:00:49.467Z,-4.40
2022-12-23T17:03:47.213Z,-4.30
2022-12-23T17:06:46.927Z,-4.30
2022-12-23T17:09:44.693Z,-4.20
2022-12-23T17:12:42.769Z,-4.30
2022-12-23T17:15:40.555Z,-4.20
2022-12-23T17:18:38.177Z,-4.20
2022-12-23T17:21:40.194Z,-4.20
2022-12-23T17:24:37.830Z,-4.40
2022-12-23T17:27:35.589Z,-4.40
2022-12-23T17:30:33.964Z,-4.50
2022-12-23T17:33:33.024Z,-4.50
2022-12-23T17:36:30.830Z,-4.40
2022-12-23T17:39:28.577Z,-4.30
2022-12-23T17:42:26.378Z,-4.20
2022-12-23T17:45:30.583Z,-4.20
2022-12-23T17:48:31.936Z,-4.20
2022-12-23T17:51:29.955Z,-4.20
2022-12-23T17:54:28.010Z,-4.20
2022-12-23T17:57:27.370Z,-4.20
2022-12-23T18:00:31.659Z,-4.20
2022-12-23T18:03:31.780Z,-4.00
2022-12-23T18:06:29.849Z,-4.00
2022-12-23T18:09:27.565Z,-4.00
2022-12-23T18:12:39.850Z,-4.20
2022-12-23T18:15:42.953Z,-4.30
2022-12-23T18:18:46.177Z,-4.30
2022-12-23T18:21:44.701Z,-4.40
2022-12-23T18:24:42.484Z,-4.50
2022-12-23T18:27:40.210Z,-4.30
2022-12-23T18:30:38.894Z,-4.20
2022-12-23T18:33:36.685Z,-4.30
2022-12-23T18:36:34.722Z,-4.40
2022-12-23T18:39:32.541Z,-4.30
2022-12-23T18:42:30.184Z,-4.30
2022-12-23T18:45:40.631Z,-4.30
2022-12-23T18:48:38.458Z,-4.30
2022-12-23T18:51:36.186Z,-4.30
2022-12-23T18:54:34.782Z,-4.30
2022-12-23T18:57:32.448Z,-4.40
2022-12-23T19:00:31.507Z,-4.50
2022-12-23T19:03:31.855Z,-4.60
2022-12-23T19:06:29.489Z,-4.40
2022-12-23T19:09:27.303Z,-4.40
2022-12-23T19:12:25.098Z,-4.30
2022-12-23T19:15:23.814Z,-4.40
2022-12-23T19:18:22.845Z,-4.40
2022-12-23T19:21:20.588Z,-4.50
2022-12-23T19:24:18.525Z,-4.50
2022-12-23T19:27:16.189Z,-4.60
2022-12-23T19:30:16.623Z,-4.50
2022-12-23T19:33:14.371Z,-4.60
2022-12-23T19:36:19.250Z,-4.60
2022-12-23T19:39:17.550Z,-4.50
2022-12-23T19:42:15.996Z,-4.50
2022-12-23T19:45:13.777Z,-4.50
2022-12-23T19:48:11.465Z,-4.60
2022-12-23T19:51:14.158Z,-4.60
2022-12-23T19:54:11.897Z,-4.50
2022-12-23T19:57:09.646Z,-4.40
2022-12-23T20:00:08.489Z,-4.40
2022-12-23T20:03:06.241Z,-4.60
2022-12-23T20:06:04.594Z,-4.70
2022-12-23T20:09:06.884Z,-4.70
2022-12-23T20:12:04.945Z,-4.60
2022-12-23T20:15:02.768Z,-4.40
2022-12-23T20:18:00.478Z,-4.30
2022-12-23T20:20:58.887Z,-4.40
2022-12-23T20:23:56.585Z,-4.50
2022-12-23T20:26:54.471Z,-4.40
2022-12-23T20:29:52.094Z,-4.30
2022-12-23T20:32:49.791Z,-4.40
2022-12-23T20:35:47.481Z,-4.40
2022-12-23T20:38:47.150Z,-4.40
2022-12-23T20:41:44.842Z,-4.40
2022-12-23T20:44:42.592Z,-4.50
2022-12-23T20:47:40.653Z,-4.50
2022-12-23T20:50:40.766Z,-4.50
2022-12-23T20:53:38.955Z,-4.50
2022-12-23T20:56:37.279Z,-4.60
2022-12-23T20:59:34.954Z,-4.50
2022-12-23T21:02:32.704Z,-4.60
2022-12-23T21:05:30.348Z,-4.50
2022-12-23T21:08:28.121Z,-4.40
2022-12-23T21:11:29.999Z,-4.50
2022-12-23T21:14:28.111Z,-4.50
2022-12-23T21:17:26.369Z,-4.60
2022-12-23T21:20:24.160Z,-4.50
2022-12-23T21:23:21.815Z,-4.40
2022-12-23T21:26:22.069Z,-4.30
2022-12-23T21:29:21.029Z,-4.40
2022-12-23T21:32:18.777Z,-4.50
2022-12-23T21:35:16.474Z,-4.50
2022-12-23T21:38:14.223Z,-4.50
2022-12-23T21:41:17.224Z,-4.40
2022-12-23T21:44:15.342Z,-4.30
2022-12-23T21:47:13.075Z,-4.30
2022-12-23T21:50:11.217Z,-4.30
2022-12-23T21:53:10.809Z,-4.50
2022-12-23T21:56:11.703Z,-4.40
2022-12-23T21:59:13.289Z,-4.40
2022-12-23T22:02:17.591Z,-4.40
2022-12-23T22:05:15.355Z,-4.40
2022-12-23T22:08:13.239Z,-4.60
2022-12-23T22:11:17.848Z,-4.70
2022-12-23T22:14:18.172Z,-4.70
2022-12-23T22:17:15.999Z,-4.70
2022-12-23T22:20:13.819Z,-4.70
2022-12-23T22:23:11.464Z,-4.60
2022-12-23T22:26:11.159Z,-4.60
2022-12-23T22:29:08.854Z,-4.70
2022-12-23T22:32:06.589Z,-4.60
2022-12-23T22:35:04.450Z,-4.60
2022-12-23T22:38:02.203Z,-4.60
2022-12-23T22:40:59.908Z,-4.60
2022-12-23T22:43:58.703Z,-4.50
2022-12-23T22:46:56.650Z,-4.80
2022-12-23T22:49:54.473Z,-4.80
2022-12-23T22:52:52.125Z,-4.80
2022-12-23T22:55:58.260Z,-4.90
2022-12-23T22:58:56.216Z,-4.90
2022-12-23T23:01:54.274Z,-4.90
2022-12-23T23:04:52.459Z,-4.80
2022-12-23T23:07:50.645Z,-4.90
2022-12-23T23:10:48.279Z,-5.00
2022-12-23T23:13:46.100Z,-5.10
2022-12-23T23:16:43.877Z,-5.10
2022-12-23T23:19:41.661Z,-5.00
2022-12-23T23:22:39.474Z,-4.90
2022-12-23T23:25:37.216Z,-5.00
2022-12-23T23:28:35.072Z,-4.90
2022-12-23T23:31:41.735Z,-5.00
2022-12-23T23:34:41.116Z,-5.00
2022-12-23T23:37:38.991Z,-5.10
2022-12-23T23:40:38.231Z,-5.10
2022-12-23T23:43:36.015Z,-5.10
2022-12-23T23:46:34.742Z,-5.30
2022-12-23T23:49:32.558Z,-5.40
2022-12-23T23:52:30.541Z,-5.40
2022-12-23T23:55:28.596Z,-5.30
2022-12-23T23:58:26.298Z,-5.40
